Terminal Aerodrome Forecast
Issued by NWS Wilmington, OH

Current Version | Previous Version | Graphics & Text | Print | Product List | Glossary On
Versions: 1 2 3 4 5 6 7 8 9 10 11 12 13 14 15 16 17 18 19 20 21 22 23 24
053
FTUS41 KILN 130542
TAFILN
TAF
KILN 130542Z 1306/1406 26008KT P6SM FEW080
     FM131100 20009KT P6SM BKN080
     FM131700 20014G22KT P6SM BKN120
     FM132300 23014G22KT P6SM OVC050
     FM140200 27016G24KT P6SM VCSH OVC035
     FM140500 29016G24KT P6SM OVC025=

USA.gov is the U.S. government's official web portal to all federal, state and local government web resources and services.